01:55
Airports
Links
Donate
Help keep this website running!
PayPal
Bitcoin
MATER
No METAR for DNKA
Current Weather Conditions at
No weather report for DNKA
TAF
TAF DNKA 232130Z 2400/2506 05008KT CAVOK PROB30 TEMPO 2405/2410 7000 NSC
Forecast at DNKA
00:00 24-11-17 to 06:00 25-11-17
NSW
Wind:8 Knots from 50°
Visibility:6.21 statute miles
NSC
TEMPO 05:00 24-11-17 to 10:00 24-11-17
30%
Visibility:4.35 statute miles
NSC